createdAt,value
2023-03-24T00:01:11.328Z,2.57
2023-03-24T00:03:39.423Z,2.67
2023-03-24T00:06:09.384Z,3.87
2023-03-24T00:08:38.688Z,2.47
2023-03-24T00:11:09.521Z,2.80
2023-03-24T00:13:39.185Z,3.20
2023-03-24T00:16:08.192Z,3.57
2023-03-24T00:18:36.965Z,4.63
2023-03-24T00:21:06.139Z,2.80
2023-03-24T00:23:34.950Z,4.60
2023-03-24T00:26:04.469Z,3.40
2023-03-24T00:28:34.884Z,3.20
2023-03-24T00:31:03.088Z,3.17
2023-03-24T00:33:31.793Z,4.63
2023-03-24T00:35:59.899Z,3.93
2023-03-24T00:38:28.377Z,4.93
2023-03-24T00:40:56.338Z,3.17
2023-03-24T00:43:24.130Z,2.67
2023-03-24T00:46:01.173Z,4.70
2023-03-24T00:48:29.674Z,3.50
2023-03-24T00:50:57.812Z,3.03
2023-03-24T00:53:25.846Z,3.10
2023-03-24T00:55:53.825Z,3.33
2023-03-24T00:58:22.710Z,3.57
2023-03-24T01:00:52.362Z,5.47
2023-03-24T01:03:26.645Z,3.20
2023-03-24T01:05:57.731Z,3.10
2023-03-24T01:08:25.846Z,3.40
2023-03-24T01:10:54.030Z,3.03
2023-03-24T01:13:22.947Z,4.20
2023-03-24T01:15:50.946Z,3.37
2023-03-24T01:18:19.160Z,3.40
2023-03-24T01:20:49.272Z,3.03
2023-03-24T01:23:20.046Z,3.67
2023-03-24T01:25:48.394Z,3.97
2023-03-24T01:28:18.769Z,5.63
2023-03-24T01:30:46.918Z,4.90
2023-03-24T01:33:14.689Z,4.93
2023-03-24T01:35:42.550Z,3.70
2023-03-24T01:38:13.041Z,3.13
2023-03-24T01:40:43.238Z,4.63
2023-03-24T01:43:18.784Z,3.93
2023-03-24T01:45:57.234Z,4.73
2023-03-24T01:48:27.786Z,4.03
2023-03-24T01:50:58.238Z,3.57
2023-03-24T01:53:28.292Z,4.27
2023-03-24T01:55:56.773Z,4.53
2023-03-24T01:58:25.206Z,3.60
2023-03-24T02:00:53.468Z,3.60
2023-03-24T02:03:23.340Z,3.27
2023-03-24T02:05:52.228Z,4.37
2023-03-24T02:08:24.169Z,4.17
2023-03-24T02:10:54.931Z,2.73
2023-03-24T02:13:23.689Z,2.80
2023-03-24T02:16:00.035Z,3.83
2023-03-24T02:18:33.097Z,5.17
2023-03-24T02:21:29.225Z,3.77
2023-03-24T02:24:17.886Z,3.90
2023-03-24T02:27:02.115Z,4.13
2023-03-24T02:30:23.645Z,3.60
2023-03-24T02:33:33.944Z,5.33
2023-03-24T02:36:41.031Z,4.33
2023-03-24T02:39:44.148Z,4.23
2023-03-24T02:42:24.140Z,4.37
2023-03-24T02:45:01.175Z,4.63
2023-03-24T02:47:34.799Z,4.40
2023-03-24T02:50:07.823Z,5.07
2023-03-24T02:52:40.518Z,5.07
2023-03-24T02:55:13.950Z,4.43
2023-03-24T02:57:44.758Z,5.53
2023-03-24T03:00:16.726Z,5.40
2023-03-24T03:02:47.961Z,7.07
2023-03-24T03:05:19.069Z,5.43
2023-03-24T03:07:47.701Z,5.30
2023-03-24T03:10:19.535Z,5.37
2023-03-24T03:12:49.474Z,4.83
2023-03-24T03:15:22.607Z,5.93
2023-03-24T03:17:58.692Z,6.73
2023-03-24T03:20:30.985Z,5.03
2023-03-24T03:23:02.139Z,4.60
2023-03-24T03:25:34.939Z,5.83
2023-03-24T03:28:04.691Z,7.07
2023-03-24T03:30:37.538Z,5.57
2023-03-24T03:33:08.029Z,5.57
2023-03-24T03:35:38.883Z,6.27
2023-03-24T03:38:11.708Z,8.57
2023-03-24T03:40:43.057Z,8.13
2023-03-24T03:43:11.775Z,5.40
2023-03-24T03:45:39.491Z,9.07
2023-03-24T03:48:07.394Z,6.73
2023-03-24T03:50:35.686Z,6.03
2023-03-24T03:53:03.488Z,6.93
2023-03-24T03:55:32.463Z,6.87
2023-03-24T03:58:01.826Z,5.27
2023-03-24T04:00:30.158Z,7.90
2023-03-24T04:03:12.925Z,6.30
2023-03-24T04:05:46.328Z,5.77
2023-03-24T04:08:25.198Z,8.10
2023-03-24T04:11:12.059Z,7.30
2023-03-24T04:13:50.818Z,6.10
2023-03-24T04:16:23.180Z,5.53
2023-03-24T04:18:58.319Z,6.87
2023-03-24T04:21:42.396Z,6.23
2023-03-24T04:24:19.687Z,5.07
2023-03-24T04:26:54.530Z,5.10
2023-03-24T04:29:33.271Z,5.70
2023-03-24T04:32:03.739Z,5.60
2023-03-24T04:34:35.048Z,8.10
2023-03-24T04:37:06.481Z,6.43
2023-03-24T04:39:39.014Z,6.77
2023-03-24T04:42:11.556Z,6.13
2023-03-24T04:44:41.653Z,6.83
2023-03-24T04:47:09.864Z,5.70
2023-03-24T04:49:38.984Z,6.27
2023-03-24T04:52:07.895Z,6.77
2023-03-24T04:54:35.698Z,5.30
2023-03-24T04:57:03.955Z,6.27
2023-03-24T04:59:34.164Z,4.20
2023-03-24T05:02:03.312Z,4.87
2023-03-24T05:04:31.177Z,5.87
2023-03-24T05:06:58.840Z,4.10
2023-03-24T05:09:27.085Z,4.17
2023-03-24T05:11:54.672Z,4.57
2023-03-24T05:14:22.252Z,4.30
2023-03-24T05:16:49.981Z,4.60
2023-03-24T05:19:18.968Z,7.27
2023-03-24T05:21:47.244Z,4.43
2023-03-24T05:24:14.890Z,3.40
2023-03-24T05:26:42.511Z,3.67
2023-03-24T05:29:10.279Z,4.63
2023-03-24T05:31:37.947Z,3.50
2023-03-24T05:34:05.601Z,3.00
2023-03-24T05:36:34.589Z,2.73
2023-03-24T05:39:02.222Z,2.33
2023-03-24T05:41:29.831Z,2.87
2023-03-24T05:43:57.496Z,2.33
2023-03-24T05:46:26.656Z,2.20
2023-03-24T05:48:54.466Z,2.30
2023-03-24T05:51:22.381Z,3.07
2023-03-24T05:53:52.034Z,3.63
2023-03-24T05:56:19.640Z,2.10
2023-03-24T05:58:47.241Z,2.97
2023-03-24T06:01:18.316Z,1.83
2023-03-24T06:03:46.202Z,2.20
2023-03-24T06:06:16.502Z,2.67
2023-03-24T06:08:44.961Z,2.90
2023-03-24T06:11:14.009Z,2.37
2023-03-24T06:13:41.788Z,2.83
2023-03-24T06:16:10.807Z,2.43
2023-03-24T06:18:40.361Z,2.97
2023-03-24T06:21:08.288Z,2.80
2023-03-24T06:23:36.038Z,2.40
2023-03-24T06:26:09.652Z,3.23
2023-03-24T06:28:40.034Z,2.63
2023-03-24T06:31:14.661Z,2.90
2023-03-24T06:33:43.427Z,4.40
2023-03-24T06:36:12.378Z,3.17
2023-03-24T06:38:40.635Z,4.57
2023-03-24T06:41:08.879Z,3.47
2023-03-24T06:43:38.216Z,5.80
2023-03-24T06:46:06.333Z,3.53
2023-03-24T06:48:34.319Z,3.40
2023-03-24T06:51:01.942Z,4.60
2023-03-24T06:53:29.582Z,4.20
2023-03-24T06:55:57.201Z,3.53
2023-03-24T06:58:24.771Z,4.23
2023-03-24T07:00:53.740Z,4.20
2023-03-24T07:03:23.438Z,4.13
2023-03-24T07:05:51.960Z,4.67
2023-03-24T07:08:36.461Z,3.47
2023-03-24T07:11:06.942Z,6.37
2023-03-24T07:13:34.593Z,3.60
2023-03-24T07:16:03.792Z,3.40
2023-03-24T07:18:31.399Z,3.63
2023-03-24T07:20:59.041Z,3.03
2023-03-24T07:23:27.603Z,5.53
2023-03-24T07:25:55.464Z,3.57
2023-03-24T07:28:23.316Z,3.80
2023-03-24T07:30:53.255Z,5.23
2023-03-24T07:33:24.938Z,5.07
2023-03-24T07:35:55.609Z,3.47
2023-03-24T07:38:23.221Z,4.23
2023-03-24T07:40:51.235Z,4.40
2023-03-24T07:43:18.916Z,4.67
2023-03-24T07:45:47.279Z,4.23
2023-03-24T07:48:15.351Z,4.37
2023-03-24T07:50:44.607Z,4.30
2023-03-24T07:53:12.409Z,3.73
2023-03-24T07:55:40.337Z,6.90
2023-03-24T07:58:07.982Z,4.63
2023-03-24T08:00:35.600Z,3.87
2023-03-24T08:03:03.571Z,4.47
2023-03-24T08:05:31.326Z,4.27
2023-03-24T08:08:01.664Z,4.07
2023-03-24T08:10:31.081Z,4.00
2023-03-24T08:12:59.276Z,4.70
2023-03-24T08:15:28.164Z,3.93
2023-03-24T08:17:56.725Z,3.70
2023-03-24T08:20:27.157Z,4.23
2023-03-24T08:22:55.107Z,4.17
2023-03-24T08:25:25.716Z,3.60
2023-03-24T08:27:54.070Z,4.53
2023-03-24T08:30:23.829Z,3.07
2023-03-24T08:32:52.753Z,3.50
2023-03-24T08:35:22.178Z,3.93
2023-03-24T08:37:49.816Z,3.80
2023-03-24T08:40:22.475Z,3.53
2023-03-24T08:42:53.038Z,3.60
2023-03-24T08:45:23.358Z,3.47
2023-03-24T08:47:52.868Z,1.43
2023-03-24T08:50:22.606Z,1.60
2023-03-24T08:52:50.367Z,2.20
2023-03-24T08:55:19.253Z,0.83
2023-03-24T08:57:47.241Z,0.70
2023-03-24T09:00:18.461Z,0.70
2023-03-24T09:02:47.194Z,0.93
2023-03-24T09:05:18.007Z,1.27
2023-03-24T09:07:46.831Z,0.80
2023-03-24T09:10:15.951Z,0.67
2023-03-24T09:12:45.341Z,4.23
2023-03-24T09:15:14.407Z,0.70
2023-03-24T09:17:43.385Z,0.70
2023-03-24T09:20:13.238Z,1.30
2023-03-24T09:22:43.759Z,0.80
2023-03-24T09:25:14.024Z,0.70
2023-03-24T09:27:41.608Z,0.70
2023-03-24T09:30:10.560Z,0.97
2023-03-24T09:32:38.346Z,0.60
2023-03-24T09:35:08.662Z,0.70
2023-03-24T09:37:38.410Z,0.57
2023-03-24T09:40:07.843Z,1.33
2023-03-24T09:42:38.953Z,0.60
2023-03-24T09:45:11.632Z,1.00
2023-03-24T09:47:41.933Z,0.93
2023-03-24T09:50:23.057Z,0.50
2023-03-24T09:52:53.660Z,2.90
2023-03-24T09:55:24.787Z,1.00
2023-03-24T09:57:53.986Z,1.50
2023-03-24T10:00:24.272Z,0.80
2023-03-24T10:02:56.069Z,3.73
2023-03-24T10:05:29.904Z,0.90
2023-03-24T10:08:00.814Z,1.20
2023-03-24T10:10:33.023Z,0.97
2023-03-24T10:13:06.886Z,1.17
2023-03-24T10:15:39.049Z,0.60
2023-03-24T10:18:22.846Z,2.00
2023-03-24T10:20:53.693Z,0.50
2023-03-24T10:23:26.793Z,1.30
2023-03-24T10:25:57.668Z,0.63
2023-03-24T10:28:28.567Z,0.60
2023-03-24T10:30:58.289Z,1.67
2023-03-24T10:33:25.972Z,1.03
2023-03-24T10:36:02.043Z,1.30
2023-03-24T10:38:29.858Z,2.20
2023-03-24T10:40:57.704Z,1.93
2023-03-24T10:43:26.916Z,1.83
2023-03-24T10:45:56.429Z,3.67
2023-03-24T10:48:44.043Z,3.10
2023-03-24T10:51:17.937Z,3.80
2023-03-24T10:53:47.827Z,3.57
2023-03-24T10:56:19.898Z,3.73
2023-03-24T10:58:48.414Z,2.47
2023-03-24T11:01:26.149Z,1.93
2023-03-24T11:03:53.984Z,2.83
2023-03-24T11:06:22.939Z,2.10
2023-03-24T11:09:09.273Z,3.70
2023-03-24T11:11:36.923Z,1.40
2023-03-24T11:14:04.734Z,3.30
2023-03-24T11:16:33.936Z,2.57
2023-03-24T11:19:03.208Z,4.20
2023-03-24T11:21:33.933Z,3.43
2023-03-24T11:24:03.208Z,4.30
2023-03-24T11:26:33.372Z,3.97
2023-03-24T11:29:02.683Z,4.03
2023-03-24T11:31:31.960Z,3.13
2023-03-24T11:34:01.254Z,5.23
2023-03-24T11:36:46.843Z,2.73
2023-03-24T11:39:18.762Z,2.73
2023-03-24T11:42:05.746Z,3.70
2023-03-24T11:44:43.256Z,1.60
2023-03-24T11:47:13.309Z,1.70
2023-03-24T11:49:44.094Z,3.37
2023-03-24T11:52:21.846Z,4.17
2023-03-24T11:54:49.473Z,3.63
2023-03-24T11:57:22.792Z,2.07
2023-03-24T11:59:57.956Z,3.60
2023-03-24T12:02:37.503Z,2.37
2023-03-24T12:05:17.612Z,4.20
2023-03-24T12:07:58.194Z,5.53
2023-03-24T12:10:35.316Z,2.10
2023-03-24T12:13:11.769Z,4.10
2023-03-24T12:15:55.477Z,3.47
2023-03-24T12:18:37.477Z,4.63
2023-03-24T12:21:10.971Z,5.53
2023-03-24T12:23:47.059Z,3.90
2023-03-24T12:26:18.568Z,3.30
2023-03-24T12:28:55.201Z,2.83
2023-03-24T12:31:52.481Z,4.27
2023-03-24T12:34:35.400Z,4.40
2023-03-24T12:37:08.404Z,3.77
2023-03-24T12:39:43.101Z,2.50
2023-03-24T12:42:12.635Z,4.53
2023-03-24T12:45:05.814Z,3.87
2023-03-24T12:48:04.272Z,1.27
2023-03-24T12:50:40.413Z,4.10
2023-03-24T12:53:23.088Z,2.70
2023-03-24T12:55:54.084Z,3.07
2023-03-24T12:58:25.098Z,3.23
2023-03-24T13:01:01.237Z,2.40
2023-03-24T13:03:33.009Z,3.07
2023-03-24T13:06:16.898Z,4.83
2023-03-24T13:08:50.486Z,4.40
2023-03-24T13:11:32.754Z,4.67
2023-03-24T13:14:02.527Z,3.53
2023-03-24T13:16:32.976Z,2.50
2023-03-24T13:19:02.661Z,3.67
2023-03-24T13:21:35.041Z,1.83
2023-03-24T13:24:08.761Z,2.97
2023-03-24T13:26:40.917Z,3.70
2023-03-24T13:29:15.938Z,3.30
2023-03-24T13:31:46.818Z,2.53
2023-03-24T13:34:24.136Z,2.70
2023-03-24T13:36:55.708Z,2.37
2023-03-24T13:39:25.318Z,5.10
2023-03-24T13:41:57.364Z,2.50
2023-03-24T13:44:26.378Z,5.47
2023-03-24T13:47:11.044Z,4.10
2023-03-24T13:49:39.449Z,3.40
2023-03-24T13:52:08.363Z,1.83
2023-03-24T13:54:37.797Z,4.67
2023-03-24T13:57:08.113Z,4.97
2023-03-24T13:59:42.494Z,6.03
2023-03-24T14:02:24.435Z,4.40
2023-03-24T14:05:05.689Z,3.63
2023-03-24T14:07:48.621Z,2.63
2023-03-24T14:10:41.444Z,2.37
2023-03-24T14:13:36.671Z,1.87
2023-03-24T14:16:43.956Z,3.10
2023-03-24T14:19:20.925Z,2.53
2023-03-24T14:21:53.575Z,3.80
2023-03-24T14:24:26.446Z,3.67
2023-03-24T14:26:54.074Z,2.93
2023-03-24T14:29:43.363Z,1.77
2023-03-24T14:32:20.191Z,3.03
2023-03-24T14:34:57.046Z,5.10
2023-03-24T14:37:25.319Z,3.27
2023-03-24T14:39:53.026Z,6.07
2023-03-24T14:42:56.183Z,6.40
2023-03-24T14:45:54.780Z,7.93
2023-03-24T14:48:31.914Z,6.37
2023-03-24T14:51:02.633Z,2.23
2023-03-24T14:53:30.291Z,2.20
2023-03-24T14:55:57.892Z,2.83
2023-03-24T14:58:31.200Z,1.30
2023-03-24T15:01:07.548Z,1.60
2023-03-24T15:03:40.448Z,1.43
2023-03-24T15:06:15.930Z,4.60
2023-03-24T15:08:50.487Z,4.50
2023-03-24T15:11:20.466Z,2.00
2023-03-24T15:13:50.248Z,4.13
2023-03-24T15:16:21.850Z,6.77
2023-03-24T15:19:00.456Z,2.97
2023-03-24T15:21:31.454Z,2.10
2023-03-24T15:24:00.984Z,5.70
2023-03-24T15:26:30.366Z,4.43
2023-03-24T15:29:00.012Z,4.03
2023-03-24T15:31:31.171Z,2.00
2023-03-24T15:34:06.866Z,1.23
2023-03-24T15:36:44.961Z,4.20
2023-03-24T15:39:20.785Z,4.17
2023-03-24T15:41:52.139Z,2.10
2023-03-24T15:44:20.878Z,3.53
2023-03-24T15:46:50.197Z,3.10
2023-03-24T15:49:23.705Z,2.10
2023-03-24T15:51:55.230Z,4.43
2023-03-24T15:54:25.939Z,1.97
2023-03-24T15:57:10.921Z,4.43
2023-03-24T15:59:38.698Z,3.53
2023-03-24T16:02:13.558Z,1.80
2023-03-24T16:04:41.739Z,4.83
2023-03-24T16:07:23.873Z,3.13
2023-03-24T16:09:57.778Z,5.87
2023-03-24T16:12:25.352Z,3.43
2023-03-24T16:14:52.967Z,3.70
2023-03-24T16:17:21.983Z,3.43
2023-03-24T16:19:49.559Z,3.00
2023-03-24T16:22:17.207Z,3.87
2023-03-24T16:24:44.872Z,4.63
2023-03-24T16:27:12.917Z,4.07
2023-03-24T16:29:40.665Z,6.17
2023-03-24T16:32:08.406Z,3.37
2023-03-24T16:34:37.694Z,6.93
2023-03-24T16:37:05.955Z,2.83
2023-03-24T16:39:33.637Z,2.67
2023-03-24T16:42:01.397Z,5.53
2023-03-24T16:44:29.012Z,4.93
2023-03-24T16:46:56.763Z,4.33
2023-03-24T16:49:25.020Z,2.53
2023-03-24T16:51:54.307Z,3.10
2023-03-24T16:54:22.033Z,4.17
2023-03-24T16:56:49.825Z,3.47
2023-03-24T16:59:17.443Z,3.77
2023-03-24T17:01:47.245Z,6.00
2023-03-24T17:04:16.390Z,2.83
2023-03-24T17:06:45.404Z,4.37
2023-03-24T17:09:14.542Z,1.73
2023-03-24T17:11:43.738Z,4.17
2023-03-24T17:14:12.362Z,3.70
2023-03-24T17:16:43.853Z,3.43
2023-03-24T17:19:12.668Z,8.17
2023-03-24T17:21:44.815Z,8.40
2023-03-24T17:24:14.514Z,4.33
2023-03-24T17:26:43.319Z,4.37
2023-03-24T17:29:12.357Z,3.57
2023-03-24T17:31:40.150Z,6.03
2023-03-24T17:34:20.661Z,4.03
2023-03-24T17:36:49.552Z,4.30
2023-03-24T17:39:19.467Z,5.67
2023-03-24T17:41:47.176Z,4.90
2023-03-24T17:44:14.799Z,4.47
2023-03-24T17:46:42.662Z,5.20
2023-03-24T17:49:10.309Z,6.90
2023-03-24T17:51:37.992Z,3.60
2023-03-24T17:54:06.375Z,3.87
2023-03-24T17:56:35.475Z,4.47
2023-03-24T17:59:04.606Z,5.50
2023-03-24T18:01:35.082Z,4.40
2023-03-24T18:04:03.503Z,3.53
2023-03-24T18:06:31.710Z,4.53
2023-03-24T18:08:59.364Z,3.33
2023-03-24T18:11:27.060Z,4.73
2023-03-24T18:13:56.062Z,5.60
2023-03-24T18:16:25.188Z,7.13
2023-03-24T18:18:52.877Z,5.73
2023-03-24T18:21:21.071Z,3.23
2023-03-24T18:23:48.804Z,4.90
2023-03-24T18:26:17.799Z,6.60
2023-03-24T18:28:46.601Z,3.40
2023-03-24T18:31:18.628Z,4.90
2023-03-24T18:33:46.937Z,4.20
2023-03-24T18:36:16.875Z,5.07
2023-03-24T18:38:47.852Z,3.93
2023-03-24T18:41:16.747Z,3.23
2023-03-24T18:43:47.623Z,7.03
2023-03-24T18:46:17.352Z,2.23
2023-03-24T18:48:46.504Z,5.43
2023-03-24T18:51:14.697Z,5.63
2023-03-24T18:53:42.497Z,3.83
2023-03-24T18:56:10.185Z,4.87
2023-03-24T18:58:38.966Z,6.60
2023-03-24T19:01:09.609Z,3.70
2023-03-24T19:03:40.777Z,4.00
2023-03-24T19:06:10.057Z,4.50
2023-03-24T19:08:41.323Z,4.20
2023-03-24T19:11:09.481Z,3.20
2023-03-24T19:13:37.774Z,2.57
2023-03-24T19:16:06.599Z,0.97
2023-03-24T19:18:34.198Z,4.20
2023-03-24T19:21:03.660Z,1.90
2023-03-24T19:23:31.665Z,3.77
2023-03-24T19:25:59.303Z,2.47
2023-03-24T19:28:29.256Z,2.60
2023-03-24T19:30:57.359Z,1.83
2023-03-24T19:33:25.545Z,2.57
2023-03-24T19:35:54.231Z,4.47
2023-03-24T19:38:24.253Z,2.03
2023-03-24T19:40:53.901Z,2.27
2023-03-24T19:43:21.960Z,1.10
2023-03-24T19:45:51.384Z,2.50
2023-03-24T19:48:19.210Z,2.37
2023-03-24T19:50:48.343Z,6.90
2023-03-24T19:53:16.187Z,1.00
2023-03-24T19:55:45.305Z,4.10
2023-03-24T19:58:12.904Z,1.50
2023-03-24T20:00:41.339Z,4.60
2023-03-24T20:03:09.422Z,2.77
2023-03-24T20:05:37.572Z,2.10
2023-03-24T20:08:05.964Z,2.97
2023-03-24T20:10:36.016Z,2.53
2023-03-24T20:13:05.519Z,2.60
2023-03-24T20:15:33.252Z,1.63
2023-03-24T20:18:01.736Z,4.03
2023-03-24T20:20:29.742Z,1.67
2023-03-24T20:22:58.546Z,4.23
2023-03-24T20:25:26.451Z,3.27
2023-03-24T20:27:54.276Z,4.80
2023-03-24T20:30:24.169Z,4.10
2023-03-24T20:32:52.027Z,2.30
2023-03-24T20:35:19.890Z,3.17
2023-03-24T20:37:48.125Z,3.20
2023-03-24T20:40:16.351Z,2.93
2023-03-24T20:42:44.018Z,3.27
2023-03-24T20:45:12.923Z,2.27
2023-03-24T20:47:42.489Z,2.47
2023-03-24T20:50:11.668Z,1.70
2023-03-24T20:52:39.372Z,2.40
2023-03-24T20:55:08.728Z,5.90
2023-03-24T20:57:37.333Z,3.30
2023-03-24T21:00:13.403Z,3.93
2023-03-24T21:02:43.941Z,3.27
2023-03-24T21:05:13.729Z,4.37
2023-03-24T21:07:45.504Z,1.43
2023-03-24T21:10:14.558Z,3.27
2023-03-24T21:12:52.517Z,4.80
2023-03-24T21:15:23.198Z,5.67
2023-03-24T21:17:52.886Z,5.30
2023-03-24T21:20:20.896Z,4.63
2023-03-24T21:22:53.494Z,2.70
2023-03-24T21:25:22.764Z,3.10
2023-03-24T21:27:50.586Z,5.57
2023-03-24T21:30:19.238Z,5.60
2023-03-24T21:32:47.772Z,3.17
2023-03-24T21:35:18.457Z,1.87
2023-03-24T21:37:46.809Z,3.33
2023-03-24T21:40:18.287Z,2.10
2023-03-24T21:42:46.954Z,0.33
2023-03-24T21:45:16.477Z,0.30
2023-03-24T21:47:46.027Z,1.00
2023-03-24T21:50:18.889Z,0.80
2023-03-24T21:52:47.513Z,0.87
2023-03-24T21:55:16.519Z,1.03
2023-03-24T21:57:44.935Z,0.60
2023-03-24T22:00:14.893Z,1.57
2023-03-24T22:02:45.522Z,0.83
2023-03-24T22:05:13.974Z,1.13
2023-03-24T22:07:44.650Z,1.17
2023-03-24T22:10:14.417Z,1.20
2023-03-24T22:12:43.179Z,1.07
2023-03-24T22:15:12.603Z,2.20
2023-03-24T22:17:41.070Z,1.63
2023-03-24T22:20:09.973Z,0.93
2023-03-24T22:22:41.582Z,1.77
2023-03-24T22:25:12.970Z,0.97
2023-03-24T22:27:41.357Z,3.03
2023-03-24T22:30:11.071Z,2.13
2023-03-24T22:32:39.123Z,2.27
2023-03-24T22:35:08.214Z,3.50
2023-03-24T22:37:38.354Z,2.70
2023-03-24T22:40:07.284Z,1.87
2023-03-24T22:42:36.359Z,2.40
2023-03-24T22:45:04.163Z,2.17
2023-03-24T22:47:31.804Z,0.73
2023-03-24T22:49:59.807Z,2.97
2023-03-24T22:52:28.226Z,1.23
2023-03-24T22:54:56.008Z,2.23
2023-03-24T22:57:23.759Z,5.97
2023-03-24T22:59:52.991Z,1.43
2023-03-24T23:02:24.500Z,3.27
2023-03-24T23:04:54.914Z,3.60
2023-03-24T23:07:23.160Z,2.07
2023-03-24T23:09:53.229Z,0.60
2023-03-24T23:12:21.402Z,0.27
2023-03-24T23:14:49.556Z,0.20
2023-03-24T23:17:19.653Z,0.50
2023-03-24T23:19:47.395Z,0.87
2023-03-24T23:22:15.742Z,2.27
2023-03-24T23:24:43.386Z,0.87
2023-03-24T23:27:11.133Z,2.00
2023-03-24T23:29:40.439Z,0.80
2023-03-24T23:32:08.420Z,2.60
2023-03-24T23:34:38.287Z,1.43
2023-03-24T23:37:06.045Z,0.60
2023-03-24T23:39:36.689Z,1.40
2023-03-24T23:42:04.737Z,3.10
2023-03-24T23:44:32.358Z,1.73
2023-03-24T23:47:00.183Z,1.80
2023-03-24T23:49:27.807Z,3.40
2023-03-24T23:51:56.782Z,2.40
2023-03-24T23:54:24.468Z,3.47
2023-03-24T23:56:53.903Z,2.67
2023-03-24T23:59:21.594Z,5.00
